Time;durP1;ratioP1;P1;durP2;ratioP2;P2;SDS_P1;SDS_P2;PMS_P1;PMS_P2;Temp;Humidity;BMP_temperature;BMP_pressure;BME280_temperature;BME280_humidity;BME280_pressure;Samples;Min_cycle;Max_cycle;Signal;HPM_P1;HPM_P2
2021/03/16 00:01:06;;;;;;;33.72;17.20;;;5.70;70.70;;;;;;5024266;28;20022;-76
2021/03/16 00:03:33;;;;;;;31.23;17.10;;;5.60;70.70;;;;;;5025607;28;20025;-76
2021/03/16 00:06:00;;;;;;;36.47;18.30;;;5.60;70.70;;;;;;5025898;28;20030;-76
2021/03/16 00:08:26;;;;;;;28.27;15.95;;;5.60;70.80;;;;;;5023899;28;20022;-74
2021/03/16 00:10:51;;;;;;;31.50;15.63;;;5.60;70.80;;;;;;5025401;28;20034;-75
2021/03/16 00:13:17;;;;;;;30.88;15.20;;;5.50;70.70;;;;;;5040410;28;20044;-75
2021/03/16 00:15:43;;;;;;;26.23;15.10;;;5.50;70.60;;;;;;5023836;28;20033;-76
2021/03/16 00:18:14;;;;;;;28.88;14.63;;;5.50;70.60;;;;;;5025779;28;20030;-76
2021/03/16 00:20:44;;;;;;;26.95;15.32;;;5.50;70.60;;;;;;5025776;28;20064;-78
2021/03/16 00:23:11;;;;;;;27.67;15.23;;;5.50;70.60;;;;;;5022260;28;20061;-76
2021/03/16 00:25:37;;;;;;;26.98;15.05;;;5.50;70.60;;;;;;5024733;28;20021;-76
2021/03/16 00:28:04;;;;;;;29.83;15.38;;;5.50;70.50;;;;;;5025678;28;20026;-77
2021/03/16 00:30:30;;;;;;;29.98;15.65;;;5.50;70.50;;;;;;5023854;28;20058;-77
2021/03/16 00:32:55;;;;;;;31.70;14.98;;;5.50;70.50;;;;;;5024586;28;20061;-76
2021/03/16 00:35:21;;;;;;;31.02;15.27;;;5.40;70.40;;;;;;5040240;28;20048;-76
2021/03/16 00:37:47;;;;;;;26.25;14.77;;;5.50;70.50;;;;;;5022594;28;20028;-76
2021/03/16 00:40:13;;;;;;;26.17;14.88;;;5.50;70.50;;;;;;5024957;28;20021;-76
2021/03/16 00:42:39;;;;;;;26.15;15.45;;;5.40;70.40;;;;;;5024951;28;20057;-76
2021/03/16 00:45:06;;;;;;;27.70;14.70;;;5.50;70.40;;;;;;5023265;28;20052;-76
2021/03/16 00:47:32;;;;;;;28.13;15.32;;;5.40;70.30;;;;;;5024854;28;20029;-76
2021/03/16 00:49:58;;;;;;;28.20;14.35;;;5.40;70.30;;;;;;5024842;28;20041;-76
2021/03/16 00:52:24;;;;;;;25.67;14.30;;;5.40;70.30;;;;;;5022966;28;20030;-77
2021/03/16 00:54:49;;;;;;;24.25;14.43;;;5.40;70.20;;;;;;5025639;28;20057;-76
2021/03/16 00:57:15;;;;;;;26.45;15.13;;;5.40;70.20;;;;;;5024367;28;20025;-76
2021/03/16 00:59:41;;;;;;;29.73;15.05;;;5.40;70.20;;;;;;5021233;28;20029;-75
2021/03/16 01:02:07;;;;;;;24.15;14.43;;;5.40;70.20;;;;;;5015713;28;20036;-76
2021/03/16 01:04:33;;;;;;;30.25;15.50;;;5.40;70.30;;;;;;5015640;28;20030;-76
2021/03/16 01:06:59;;;;;;;28.48;15.25;;;5.40;70.30;;;;;;5015754;28;20026;-75
2021/03/16 01:09:24;;;;;;;30.30;15.68;;;5.40;70.20;;;;;;5015872;28;20091;-76
2021/03/16 01:11:50;;;;;;;23.33;14.25;;;5.40;70.20;;;;;;5015383;28;20034;-75
2021/03/16 01:14:16;;;;;;;29.13;14.88;;;5.40;70.20;;;;;;5015107;28;20111;-76
2021/03/16 01:16:41;;;;;;;28.58;14.98;;;5.40;70.30;;;;;;5013795;28;20060;-75
2021/03/16 01:19:08;;;;;;;30.58;15.20;;;5.40;70.30;;;;;;5014120;28;20022;-76
2021/03/16 01:21:33;;;;;;;29.35;15.18;;;5.40;70.30;;;;;;5015456;28;20380;-76
2021/03/16 01:23:59;;;;;;;30.25;15.75;;;5.40;70.30;;;;;;5015147;28;20034;-76
2021/03/16 01:26:25;;;;;;;31.83;15.73;;;5.50;70.30;;;;;;5014928;28;20088;-76
2021/03/16 01:28:50;;;;;;;31.23;14.70;;;5.50;70.30;;;;;;5014896;28;20033;-76
2021/03/16 01:31:16;;;;;;;34.97;15.70;;;5.50;70.20;;;;;;5014595;28;20032;-76
2021/03/16 01:33:42;;;;;;;32.55;15.85;;;5.50;70.10;;;;;;5014748;28;20526;-76
2021/03/16 01:36:07;;;;;;;32.40;15.95;;;5.60;70.10;;;;;;5014779;28;20101;-76
2021/03/16 01:38:33;;;;;;;29.30;15.80;;;5.60;70.10;;;;;;5014939;28;20026;-75
2021/03/16 01:40:59;;;;;;;32.95;17.40;;;5.60;70.00;;;;;;5014048;28;20026;-76
2021/03/16 01:43:30;;;;;;;30.55;15.75;;;5.70;70.60;;;;;;5014610;28;20065;-75
2021/03/16 01:45:56;;;;;;;33.67;16.25;;;5.60;69.80;;;;;;5014429;28;20033;-75
2021/03/16 01:48:32;;;;;;;31.75;15.70;;;5.70;70.40;;;;;;5014863;28;20030;-75
2021/03/16 01:51:04;;;;;;;26.88;16.00;;;5.70;69.80;;;;;;5014252;28;20093;-76
2021/03/16 01:53:30;;;;;;;30.00;16.13;;;5.70;69.60;;;;;;5014676;28;20141;-76
2021/03/16 01:55:57;;;;;;;30.30;15.73;;;5.80;69.60;;;;;;5014586;28;20101;-75
2021/03/16 01:58:23;;;;;;;28.17;15.57;;;5.80;69.60;;;;;;5014017;28;20025;-76
2021/03/16 02:00:49;;;;;;;31.80;16.85;;;5.80;69.50;;;;;;5013142;28;20022;-75
2021/03/16 02:03:17;;;;;;;31.83;15.55;;;5.80;69.50;;;;;;5015483;28;20037;-75
2021/03/16 02:05:44;;;;;;;34.17;16.83;;;5.80;69.50;;;;;;5015602;28;20030;-76
2021/03/16 02:08:30;;;;;;;30.50;16.85;;;5.80;69.40;;;;;;5015816;28;20026;-76
2021/03/16 02:11:24;;;;;;;30.17;16.67;;;5.80;69.30;;;;;;5015641;28;20085;-75
2021/03/16 02:14:13;;;;;;;29.20;16.02;;;5.90;69.30;;;;;;5014979;28;20057;-75
2021/03/16 02:17:08;;;;;;;28.58;15.60;;;5.90;69.20;;;;;;5015043;28;20053;-76
2021/03/16 02:19:52;;;;;;;26.98;15.15;;;5.90;69.10;;;;;;5014933;28;20083;-76
2021/03/16 02:22:20;;;;;;;30.00;15.90;;;5.90;69.00;;;;;;5014684;28;20440;-76
2021/03/16 02:25:11;;;;;;;31.45;15.48;;;6.00;69.00;;;;;;5014303;28;20452;-75
2021/03/16 02:28:03;;;;;;;27.35;15.85;;;6.00;69.00;;;;;;5014151;28;20026;-74
2021/03/16 02:30:30;;;;;;;32.45;17.13;;;6.00;68.90;;;;;;5013707;28;20048;-76
2021/03/16 02:32:57;;;;;;;31.33;15.82;;;6.10;68.90;;;;;;5013493;28;20463;-76
2021/03/16 02:35:24;;;;;;;32.20;16.77;;;6.10;68.90;;;;;;5013488;28;20056;-75
2021/03/16 02:37:54;;;;;;;35.03;16.45;;;6.10;69.00;;;;;;5014041;28;20022;-75
2021/03/16 02:40:22;;;;;;;32.25;15.23;;;6.20;69.00;;;;;;5013996;28;20022;-75
2021/03/16 02:42:48;;;;;;;33.15;16.45;;;6.20;68.80;;;;;;5014147;28;20041;-75
2021/03/16 02:45:14;;;;;;;29.95;15.32;;;6.30;68.70;;;;;;5013970;28;20061;-76
2021/03/16 02:47:41;;;;;;;33.10;15.57;;;6.30;68.50;;;;;;5014033;28;20022;-76
2021/03/16 02:50:09;;;;;;;29.42;15.75;;;6.30;68.30;;;;;;5013653;28;20427;-77
2021/03/16 02:52:36;;;;;;;29.65;16.13;;;6.30;68.20;;;;;;5028494;28;20502;-76
2021/03/16 02:55:04;;;;;;;29.98;16.08;;;6.30;68.30;;;;;;5013885;28;20494;-76
2021/03/16 02:57:32;;;;;;;30.33;15.32;;;6.40;68.40;;;;;;5013383;28;20140;-74
2021/03/16 03:00:01;;;;;;;27.48;15.98;;;6.40;68.20;;;;;;5013954;28;20030;-75
2021/03/16 03:02:28;;;;;;;29.02;15.80;;;6.40;68.10;;;;;;5014220;28;20144;-76
2021/03/16 03:04:56;;;;;;;33.00;15.82;;;6.40;68.00;;;;;;5013934;28;20040;-76
2021/03/16 03:07:22;;;;;;;28.17;15.10;;;6.40;67.90;;;;;;5013656;28;20084;-76
2021/03/16 03:09:48;;;;;;;28.75;15.45;;;6.40;67.80;;;;;;5013731;28;20466;-75
2021/03/16 03:12:14;;;;;;;36.03;16.95;;;6.40;67.80;;;;;;5012702;28;20045;-76
2021/03/16 03:14:40;;;;;;;31.73;15.88;;;6.40;67.90;;;;;;5013936;28;20034;-76
2021/03/16 03:17:06;;;;;;;30.00;14.90;;;6.30;67.80;;;;;;5012435;28;20104;-76
2021/03/16 03:19:33;;;;;;;31.05;15.55;;;6.30;68.00;;;;;;4996087;28;20030;-76
2021/03/16 03:22:12;;;;;;;28.17;15.32;;;6.30;68.00;;;;;;5013700;28;20096;-75
2021/03/16 03:24:45;;;;;;;25.75;15.45;;;6.20;68.00;;;;;;5013738;28;20030;-76
2021/03/16 03:27:19;;;;;;;31.67;15.43;;;6.20;68.00;;;;;;5015884;28;20476;-75
2021/03/16 03:29:46;;;;;;;38.25;15.57;;;6.20;67.90;;;;;;5017419;28;20030;-75
2021/03/16 03:32:14;;;;;;;27.17;14.95;;;6.20;68.10;;;;;;5017199;28;20034;-76
2021/03/16 03:34:43;;;;;;;32.08;15.27;;;6.20;68.30;;;;;;5016072;28;20030;-75
2021/03/16 03:37:09;;;;;;;29.23;15.15;;;6.10;68.40;;;;;;5017191;28;20026;-75
2021/03/16 03:39:37;;;;;;;29.60;15.60;;;6.20;68.50;;;;;;5017072;28;20111;-75
2021/03/16 03:42:05;;;;;;;26.80;15.57;;;6.20;68.50;;;;;;5017052;28;20030;-76
2021/03/16 03:44:33;;;;;;;29.45;15.55;;;6.20;68.40;;;;;;5017237;28;20034;-75
2021/03/16 03:47:01;;;;;;;29.08;16.63;;;6.20;68.30;;;;;;5017009;28;20057;-75
2021/03/16 03:49:28;;;;;;;31.95;15.63;;;6.20;68.30;;;;;;5016694;28;20059;-76
2021/03/16 03:51:55;;;;;;;33.53;15.90;;;6.20;68.30;;;;;;5016964;28;20040;-75
2021/03/16 03:54:23;;;;;;;27.70;15.15;;;6.10;68.40;;;;;;5015880;28;20050;-75
2021/03/16 03:56:49;;;;;;;28.42;14.52;;;6.10;68.40;;;;;;5016819;28;20025;-75
2021/03/16 03:59:16;;;;;;;29.63;14.90;;;6.10;68.40;;;;;;5016239;28;20053;-76
2021/03/16 04:01:43;;;;;;;27.88;14.88;;;6.10;68.50;;;;;;5016319;28;20131;-75
2021/03/16 04:04:09;;;;;;;30.50;15.50;;;6.00;68.50;;;;;;5016746;28;20080;-74
2021/03/16 04:06:36;;;;;;;29.10;14.95;;;6.00;68.50;;;;;;5016075;28;20034;-76
2021/03/16 04:09:03;;;;;;;28.58;15.50;;;6.00;68.60;;;;;;5016639;28;20376;-75
2021/03/16 04:11:29;;;;;;;29.77;14.43;;;5.90;68.60;;;;;;5014723;28;20033;-75
2021/03/16 04:13:55;;;;;;;26.27;13.68;;;5.90;68.80;;;;;;5016466;28;20028;-76
2021/03/16 04:16:21;;;;;;;24.00;13.25;;;5.90;68.90;;;;;;5016055;28;20030;-76
2021/03/16 04:18:48;;;;;;;28.17;13.80;;;5.90;69.10;;;;;;5016179;28;20029;-76
2021/03/16 04:21:15;;;;;;;23.17;12.95;;;5.90;69.10;;;;;;5016367;28;20037;-77
2021/03/16 04:23:42;;;;;;;30.77;13.57;;;5.90;69.30;;;;;;5016221;28;20084;-76
2021/03/16 04:26:07;;;;;;;24.42;13.40;;;5.90;69.40;;;;;;5015951;28;20411;-76
2021/03/16 04:28:34;;;;;;;25.95;13.52;;;6.00;69.50;;;;;;5016105;28;20099;-76
2021/03/16 04:31:00;;;;;;;24.90;12.77;;;6.10;69.50;;;;;;5015632;28;20083;-76
2021/03/16 04:33:26;;;;;;;28.80;14.02;;;6.10;69.40;;;;;;5015747;28;20038;-76
2021/03/16 04:35:52;;;;;;;20.25;12.30;;;6.10;69.20;;;;;;5015982;28;20415;-75
2021/03/16 04:38:18;;;;;;;26.80;12.43;;;6.20;69.00;;;;;;5015228;28;20030;-76
2021/03/16 04:40:44;;;;;;;26.38;12.13;;;6.20;69.10;;;;;;5015446;28;20037;-76
2021/03/16 04:43:10;;;;;;;28.40;12.50;;;6.20;69.20;;;;;;5015487;28;20105;-75
2021/03/16 04:45:36;;;;;;;23.60;12.32;;;6.20;69.30;;;;;;5015621;28;20033;-76
2021/03/16 04:48:02;;;;;;;21.15;12.30;;;6.20;69.30;;;;;;5015066;28;20384;-76
2021/03/16 04:50:28;;;;;;;25.50;13.68;;;6.30;69.20;;;;;;5015595;28;20026;-76
2021/03/16 04:52:54;;;;;;;24.42;12.27;;;6.40;69.10;;;;;;5015436;28;20042;-76
2021/03/16 04:55:19;;;;;;;26.67;12.02;;;6.40;69.00;;;;;;5016374;28;20130;-76
2021/03/16 04:57:45;;;;;;;30.33;13.32;;;6.50;69.00;;;;;;5015264;28;20076;-76
2021/03/16 05:00:12;;;;;;;20.40;11.43;;;6.50;68.90;;;;;;5015664;28;20026;-75
2021/03/16 05:02:37;;;;;;;26.40;12.45;;;6.50;68.80;;;;;;5015613;28;20430;-76
2021/03/16 05:05:05;;;;;;;23.65;11.88;;;6.60;68.80;;;;;;5015464;28;20030;-75
2021/03/16 05:07:30;;;;;;;22.50;11.77;;;6.70;68.50;;;;;;5015458;28;20033;-75
2021/03/16 05:09:56;;;;;;;28.50;12.45;;;6.70;68.50;;;;;;5015510;28;20435;-75
2021/03/16 05:12:22;;;;;;;24.38;12.10;;;6.70;68.50;;;;;;5013910;28;20038;-75
2021/03/16 05:14:47;;;;;;;24.35;12.00;;;6.70;68.60;;;;;;5014952;28;20076;-75
2021/03/16 05:17:13;;;;;;;22.02;11.73;;;6.80;68.60;;;;;;5015497;28;20025;-75
2021/03/16 05:19:39;;;;;;;24.20;12.20;;;6.90;68.30;;;;;;5015107;28;20030;-75
2021/03/16 05:22:05;;;;;;;22.52;11.50;;;6.90;68.20;;;;;;5014905;28;20041;-76
2021/03/16 05:24:31;;;;;;;27.77;10.77;;;6.90;68.20;;;;;;5014687;28;20030;-75
2021/03/16 05:26:57;;;;;;;21.13;11.27;;;7.00;68.20;;;;;;5014895;28;20030;-75
2021/03/16 05:29:23;;;;;;;25.33;12.00;;;7.00;68.00;;;;;;5015078;28;20030;-77
2021/03/16 05:31:49;;;;;;;24.10;11.25;;;7.00;67.90;;;;;;5014714;28;20045;-77
2021/03/16 05:34:15;;;;;;;27.27;11.77;;;7.10;68.00;;;;;;5014536;28;20123;-75
2021/03/16 05:36:41;;;;;;;22.33;11.15;;;7.10;67.80;;;;;;5014650;28;20036;-75
2021/03/16 05:39:07;;;;;;;23.80;11.00;;;7.20;67.70;;;;;;5014724;28;20441;-76
2021/03/16 05:41:35;;;;;;;22.48;11.63;;;7.20;67.60;;;;;;5014238;28;20116;-75
2021/03/16 05:44:02;;;;;;;25.85;10.93;;;7.30;67.60;;;;;;5012984;28;20034;-76
2021/03/16 05:46:28;;;;;;;20.67;10.70;;;7.30;67.40;;;;;;5014311;28;20092;-75
2021/03/16 05:48:55;;;;;;;20.30;10.35;;;7.40;67.10;;;;;;5013724;28;20038;-75
2021/03/16 05:51:22;;;;;;;23.08;10.60;;;7.30;66.90;;;;;;5014179;28;20061;-76
2021/03/16 05:53:49;;;;;;;20.38;9.98;;;7.30;66.90;;;;;;5013827;28;20400;-75
2021/03/16 05:56:15;;;;;;;19.20;10.65;;;7.30;67.00;;;;;;5014628;28;20034;-77
2021/03/16 05:58:42;;;;;;;22.08;9.90;;;7.40;67.00;;;;;;5013412;28;20383;-76
2021/03/16 06:01:07;;;;;;;24.50;10.98;;;7.40;66.90;;;;;;5014665;28;20052;-75
2021/03/16 06:03:34;;;;;;;22.50;10.85;;;7.40;66.90;;;;;;5012938;28;20030;-76
2021/03/16 06:06:00;;;;;;;19.50;10.75;;;7.40;67.00;;;;;;5014326;28;20029;-76
2021/03/16 06:08:25;;;;;;;24.92;10.43;;;7.40;66.90;;;;;;5014190;28;20392;-75
2021/03/16 06:10:52;;;;;;;19.10;10.63;;;7.40;66.90;;;;;;5012825;28;20033;-75
2021/03/16 06:13:17;;;;;;;21.40;10.02;;;7.50;66.90;;;;;;5013725;28;20054;-75
2021/03/16 06:15:43;;;;;;;19.30;9.88;;;7.50;66.60;;;;;;5013571;28;20369;-75
2021/03/16 06:18:11;;;;;;;20.35;10.25;;;7.40;67.20;;;;;;5013845;28;20030;-76
2021/03/16 06:20:38;;;;;;;16.08;9.40;;;7.40;66.80;;;;;;5013616;28;20535;-75
2021/03/16 06:23:08;;;;;;;18.10;10.65;;;7.50;66.90;;;;;;5013729;28;20200;-75
2021/03/16 06:25:41;;;;;;;17.20;10.27;;;7.50;67.00;;;;;;5013566;28;20041;-74
2021/03/16 06:28:16;;;;;;;16.40;9.80;;;7.60;66.90;;;;;;5013817;28;20080;-76
2021/03/16 06:30:43;;;;;;;16.73;9.15;;;7.70;66.70;;;;;;5013704;28;20427;-76
2021/03/16 06:33:22;;;;;;;18.02;9.40;;;7.80;66.50;;;;;;5012037;28;20045;-75
2021/03/16 06:36:02;;;;;;;19.13;9.95;;;7.80;66.20;;;;;;5013712;28;20026;-75
2021/03/16 06:38:29;;;;;;;22.85;10.75;;;7.80;65.90;;;;;;5013710;28;20466;-76
2021/03/16 06:41:06;;;;;;;20.30;10.93;;;7.90;66.20;;;;;;5012197;28;20018;-76
2021/03/16 06:43:31;;;;;;;21.42;9.93;;;7.90;66.00;;;;;;5013250;28;20029;-76
2021/03/16 06:45:57;;;;;;;24.45;10.85;;;8.00;65.90;;;;;;5013274;28;20026;-76
2021/03/16 06:48:24;;;;;;;23.73;10.00;;;8.00;65.90;;;;;;5013100;28;20424;-77
2021/03/16 06:50:51;;;;;;;22.77;10.70;;;8.10;65.80;;;;;;5013023;28;20030;-76
2021/03/16 06:53:20;;;;;;;18.23;10.95;;;8.10;65.50;;;;;;5013060;28;20135;-76
2021/03/16 06:55:55;;;;;;;19.00;10.90;;;8.20;65.50;;;;;;5013313;28;20030;-77
2021/03/16 06:58:25;;;;;;;25.88;11.55;;;8.20;65.40;;;;;;5013346;28;20391;-76
2021/03/16 07:01:10;;;;;;;20.88;10.40;;;8.20;65.50;;;;;;5013165;28;20430;-75
2021/03/16 07:03:37;;;;;;;18.55;9.75;;;8.30;65.50;;;;;;5013417;28;20037;-75
2021/03/16 07:06:13;;;;;;;19.48;10.15;;;8.40;65.10;;;;;;5013507;28;20119;-75
2021/03/16 07:08:41;;;;;;;21.45;10.45;;;8.40;64.80;;;;;;5013184;28;20034;-76
2021/03/16 07:11:29;;;;;;;18.83;10.40;;;8.40;64.60;;;;;;5013181;28;20080;-75
2021/03/16 07:13:56;;;;;;;21.13;10.35;;;8.30;64.20;;;;;;5013105;28;20071;-75
2021/03/16 07:16:32;;;;;;;18.02;10.50;;;8.20;64.20;;;;;;5013343;28;20077;-75
2021/03/16 07:19:03;;;;;;;20.50;10.43;;;8.00;64.40;;;;;;5013325;28;20112;-76
2021/03/16 07:21:51;;;;;;;25.45;10.75;;;8.10;65.10;;;;;;5012927;28;20107;-76
2021/03/16 07:24:18;;;;;;;19.92;10.27;;;8.10;65.10;;;;;;5013425;28;20347;-75
2021/03/16 07:26:45;;;;;;;21.17;10.80;;;8.20;65.10;;;;;;5012721;28;20191;-75
2021/03/16 07:29:11;;;;;;;22.27;10.98;;;8.30;65.00;;;;;;5013263;28;20030;-75
2021/03/16 07:31:43;;;;;;;19.70;10.35;;;8.50;65.30;;;;;;5012630;28;20030;-75
2021/03/16 07:34:11;;;;;;;17.88;10.57;;;8.80;65.10;;;;;;5018321;28;20092;-76
2021/03/16 07:36:38;;;;;;;20.85;10.43;;;8.90;64.20;;;;;;5021340;28;20058;-76
2021/03/16 07:39:07;;;;;;;24.83;11.45;;;9.00;63.80;;;;;;5022529;28;20033;-76
2021/03/16 07:41:35;;;;;;;22.67;11.00;;;9.10;63.50;;;;;;5021495;28;20026;-76
2021/03/16 07:44:12;;;;;;;24.88;10.77;;;9.10;63.50;;;;;;5021296;28;20037;-80
2021/03/16 07:46:42;;;;;;;20.67;10.63;;;9.20;63.20;;;;;;5015555;28;20052;-81
2021/03/16 07:49:09;;;;;;;22.30;10.93;;;9.20;63.10;;;;;;5018949;28;20071;-80
2021/03/16 07:51:35;;;;;;;19.20;9.95;;;9.20;62.90;;;;;;5021257;28;20034;-80
2021/03/16 07:54:06;;;;;;;18.90;10.63;;;9.10;62.40;;;;;;5021990;28;20443;-76
2021/03/16 07:56:34;;;;;;;18.40;10.05;;;9.00;62.30;;;;;;5032407;28;20053;-76
2021/03/16 07:59:01;;;;;;;18.90;10.02;;;9.00;62.80;;;;;;5032379;28;20037;-76
2021/03/16 08:01:27;;;;;;;17.42;9.15;;;9.00;62.70;;;;;;5032615;28;20044;-76
2021/03/16 08:04:13;;;;;;;15.15;9.45;;;9.00;62.90;;;;;;5026029;28;20029;-77
2021/03/16 08:06:40;;;;;;;18.55;9.05;;;9.00;63.00;;;;;;5021242;28;20113;-77
2021/03/16 08:09:19;;;;;;;13.75;8.85;;;9.10;63.10;;;;;;5014332;28;20475;-76
2021/03/16 08:11:45;;;;;;;20.52;10.07;;;9.20;62.80;;;;;;5021578;28;20026;-77
2021/03/16 08:14:11;;;;;;;17.67;9.70;;;9.30;62.90;;;;;;5022179;28;20029;-81
2021/03/16 08:16:41;;;;;;;19.08;10.10;;;9.40;62.90;;;;;;5024612;28;20033;-78
2021/03/16 08:19:15;;;;;;;16.33;9.80;;;9.50;63.30;;;;;;5024294;28;20018;-78
2021/03/16 08:21:42;;;;;;;18.90;9.20;;;9.70;62.50;;;;;;5022521;28;20088;-77
2021/03/16 08:24:13;;;;;;;22.85;10.20;;;9.90;62.40;;;;;;5015479;28;20041;-77
2021/03/16 08:26:47;;;;;;;18.30;9.05;;;10.20;62.10;;;;;;5019326;28;20021;-76
2021/03/16 08:29:14;;;;;;;24.13;9.63;;;10.70;62.40;;;;;;5025186;28;20147;-77
2021/03/16 08:31:40;;;;;;;19.55;9.30;;;11.40;61.80;;;;;;5015529;28;20029;-77
2021/03/16 08:34:08;;;;;;;17.05;8.88;;;12.00;60.50;;;;;;5019316;28;20073;-77
2021/03/16 08:36:44;;;;;;;20.45;9.57;;;12.40;59.20;;;;;;5023807;28;20092;-77
2021/03/16 08:39:18;;;;;;;17.90;8.73;;;12.70;57.70;;;;;;5029375;28;20490;-77
2021/03/16 08:42:00;;;;;;;18.90;9.25;;;13.10;57.30;;;;;;5035507;28;20027;-74
2021/03/16 08:44:28;;;;;;;16.08;8.60;;;13.50;56.60;;;;;;5023786;28;20033;-75
2021/03/16 08:46:56;;;;;;;20.40;8.93;;;14.40;56.60;;;;;;5025390;28;20013;-75
2021/03/16 08:49:25;;;;;;;14.57;8.50;;;15.00;54.80;;;;;;5024414;28;20013;-75
2021/03/16 08:51:51;;;;;;;16.98;8.40;;;15.60;53.40;;;;;;5035230;28;20378;-74
2021/03/16 08:54:27;;;;;;;19.00;8.63;;;16.00;52.40;;;;;;5035252;28;20443;-73
2021/03/16 08:56:54;;;;;;;18.08;9.35;;;16.20;50.60;;;;;;5028694;28;20464;-74
2021/03/16 08:59:21;;;;;;;15.48;9.52;;;16.40;50.40;;;;;;5023700;28;20493;-74
2021/03/16 09:01:49;;;;;;;16.45;9.82;;;16.60;49.80;;;;;;5023833;28;20029;-74
2021/03/16 09:04:16;;;;;;;18.63;10.02;;;16.60;49.00;;;;;;5023262;28;20534;-74
2021/03/16 09:06:43;;;;;;;28.42;10.13;;;16.70;48.70;;;;;;5023332;28;20036;-74
2021/03/16 09:09:10;;;;;;;16.63;8.88;;;16.70;48.50;;;;;;5024771;28;20017;-72
2021/03/16 09:11:43;;;;;;;17.73;8.30;;;16.90;48.10;;;;;;5023402;28;20045;-75
2021/03/16 09:14:15;;;;;;;19.23;9.38;;;17.10;47.40;;;;;;5022594;28;20121;-75
2021/03/16 09:16:53;;;;;;;16.45;9.63;;;17.50;47.40;;;;;;5023471;28;20033;-74
2021/03/16 09:19:21;;;;;;;21.73;9.57;;;18.50;46.60;;;;;;5021782;28;20029;-73
2021/03/16 09:21:51;;;;;;;18.10;9.23;;;19.50;45.90;;;;;;5022358;28;20037;-74
2021/03/16 09:24:25;;;;;;;18.73;8.77;;;20.50;44.40;;;;;;5023683;28;20021;-74
2021/03/16 09:27:08;;;;;;;13.40;8.25;;;21.30;42.80;;;;;;5024338;28;20108;-73
2021/03/16 09:29:36;;;;;;;13.32;7.50;;;22.10;42.00;;;;;;5020210;28;20040;-75
2021/03/16 09:32:14;;;;;;;15.10;8.07;;;22.70;41.00;;;;;;5022739;28;20033;-75
2021/03/16 09:34:44;;;;;;;21.50;9.07;;;23.20;39.80;;;;;;5022162;28;20387;-76
2021/03/16 09:37:11;;;;;;;16.67;8.55;;;23.70;38.90;;;;;;5022314;28;20143;-76
2021/03/16 09:39:37;;;;;;;22.55;8.48;;;24.10;38.60;;;;;;5024980;28;20022;-76
2021/03/16 09:42:06;;;;;;;19.27;8.05;;;24.30;37.50;;;;;;5023118;28;20052;-76
2021/03/16 09:44:36;;;;;;;17.08;7.97;;;23.80;36.50;;;;;;5024314;28;20347;-76
2021/03/16 09:47:03;;;;;;;18.42;8.35;;;23.00;36.70;;;;;;5023268;28;20022;-75
2021/03/16 09:49:38;;;;;;;21.45;8.82;;;22.30;37.00;;;;;;5021579;28;20026;-76
2021/03/16 09:52:12;;;;;;;16.67;8.50;;;21.80;37.30;;;;;;5022251;28;20037;-75
2021/03/16 09:54:45;;;;;;;21.75;8.73;;;21.10;37.70;;;;;;5020716;28;20053;-75
2021/03/16 09:57:14;;;;;;;18.92;8.88;;;20.10;38.30;;;;;;5021758;28;20022;-75
2021/03/16 09:59:42;;;;;;;20.92;9.00;;;19.40;39.30;;;;;;5022619;28;20061;-76
2021/03/16 10:02:08;;;;;;;18.08;9.80;;;18.90;39.90;;;;;;5023263;28;20083;-75
2021/03/16 10:04:48;;;;;;;18.33;9.60;;;18.40;40.50;;;;;;5021834;28;20467;-75
2021/03/16 10:07:34;;;;;;;18.60;9.55;;;18.20;41.30;;;;;;5019324;28;20025;-74
2021/03/16 10:10:16;;;;;;;22.05;10.30;;;18.90;41.70;;;;;;5021071;28;20037;-75
2021/03/16 10:13:05;;;;;;;22.20;10.73;;;19.60;41.10;;;;;;4994398;28;20496;-74
2021/03/16 10:15:33;;;;;;;24.35;11.23;;;20.00;40.30;;;;;;4994208;28;20109;-75
2021/03/16 10:18:03;;;;;;;27.77;11.45;;;19.80;39.90;;;;;;4994397;28;20022;-75
2021/03/16 10:20:32;;;;;;;27.38;12.88;;;19.70;40.00;;;;;;4994055;28;20026;-76
2021/03/16 10:23:00;;;;;;;29.08;13.38;;;19.80;39.80;;;;;;4994248;28;20117;-75
2021/03/16 10:25:28;;;;;;;27.40;14.00;;;19.80;39.70;;;;;;4994224;28;20028;-74
2021/03/16 10:27:59;;;;;;;26.15;13.75;;;20.00;39.90;;;;;;4993181;28;20026;-74
2021/03/16 10:30:35;;;;;;;29.98;13.90;;;20.60;39.40;;;;;;4994042;28;20153;-75
2021/03/16 10:33:01;;;;;;;24.60;13.68;;;20.50;38.40;;;;;;5004583;28;20515;-75
2021/03/16 10:35:28;;;;;;;26.60;13.82;;;20.00;38.70;;;;;;5032996;28;20021;-75
2021/03/16 10:37:54;;;;;;;27.73;14.40;;;19.40;39.10;;;;;;5033175;28;20030;-75
2021/03/16 10:40:20;;;;;;;38.75;15.70;;;18.70;39.50;;;;;;5033312;28;20037;-75
2021/03/16 10:42:46;;;;;;;38.83;16.13;;;18.30;40.40;;;;;;5031777;28;20040;-74
2021/03/16 10:45:12;;;;;;;30.38;16.20;;;17.90;41.00;;;;;;5031763;28;20029;-73
2021/03/16 10:47:38;;;;;;;36.33;17.73;;;17.50;41.50;;;;;;5031808;28;20022;-73
2021/03/16 10:50:05;;;;;;;32.65;17.60;;;17.10;42.00;;;;;;5033245;28;20022;-75
2021/03/16 10:52:30;;;;;;;33.63;18.35;;;16.80;42.60;;;;;;5032777;28;20053;-73
2021/03/16 10:54:56;;;;;;;38.35;18.83;;;16.50;43.00;;;;;;5016377;28;20457;-74
2021/03/16 10:57:22;;;;;;;39.83;18.88;;;16.20;43.40;;;;;;4993786;28;20023;-76
2021/03/16 10:59:47;;;;;;;42.17;19.13;;;16.00;44.60;;;;;;4993197;28;20022;-73
2021/03/16 11:02:14;;;;;;;43.10;19.40;;;15.80;44.40;;;;;;4993383;28;20109;-75
2021/03/16 11:04:40;;;;;;;45.45;19.33;;;15.60;44.90;;;;;;5005818;28;20021;-72
2021/03/16 11:07:06;;;;;;;41.75;18.42;;;15.60;45.40;;;;;;5023455;28;20162;-72
2021/03/16 11:09:32;;;;;;;37.25;18.73;;;15.60;45.60;;;;;;5021421;28;20060;-73
2021/03/16 11:11:58;;;;;;;33.42;17.73;;;16.00;46.00;;;;;;5022294;28;20038;-75
2021/03/16 11:14:23;;;;;;;34.95;18.30;;;16.70;45.90;;;;;;5019334;28;20083;-75
2021/03/16 11:16:49;;;;;;;32.80;17.88;;;17.70;45.60;;;;;;5021981;28;20036;-75
2021/03/16 11:19:15;;;;;;;30.88;16.80;;;19.10;44.60;;;;;;5021717;28;20049;-74
2021/03/16 11:21:42;;;;;;;28.30;16.25;;;20.20;43.00;;;;;;5020543;28;20034;-73
2021/03/16 11:24:08;;;;;;;31.95;17.23;;;21.20;41.50;;;;;;5018685;28;20014;-73
2021/03/16 11:26:34;;;;;;;34.47;15.90;;;22.00;40.40;;;;;;5021199;28;20513;-73
2021/03/16 11:29:01;;;;;;;30.67;15.75;;;22.80;39.40;;;;;;5022164;28;20053;-74
2021/03/16 11:31:27;;;;;;;36.47;15.68;;;23.30;38.10;;;;;;5026419;28;20113;-74
2021/03/16 11:33:52;;;;;;;24.65;15.90;;;23.80;37.40;;;;;;5031414;28;20183;-81
2021/03/16 11:36:19;;;;;;;35.88;15.88;;;24.00;36.60;;;;;;5033166;28;20026;-83
2021/03/16 11:38:45;;;;;;;29.92;15.15;;;24.10;36.20;;;;;;5032761;28;20108;-78
2021/03/16 11:41:10;;;;;;;36.53;15.98;;;24.30;35.90;;;;;;5032707;28;20037;-74
2021/03/16 11:43:36;;;;;;;29.13;15.23;;;24.60;35.60;;;;;;5032420;28;20026;-74
2021/03/16 11:46:02;;;;;;;28.15;14.65;;;24.90;35.30;;;;;;5032634;28;20026;-74
2021/03/16 11:48:28;;;;;;;32.55;15.65;;;25.20;35.10;;;;;;5036045;28;20030;-73
2021/03/16 11:50:54;;;;;;;25.35;14.70;;;25.60;34.80;;;;;;5036142;28;20395;-75
2021/03/16 11:53:20;;;;;;;31.95;14.95;;;26.10;34.50;;;;;;5034703;28;20491;-74
2021/03/16 11:55:45;;;;;;;31.13;14.68;;;26.80;34.10;;;;;;5034988;28;20033;-74
2021/03/16 11:58:11;;;;;;;25.40;13.75;;;27.30;33.30;;;;;;5036457;28;20025;-74
2021/03/16 12:00:37;;;;;;;30.98;15.00;;;27.60;32.90;;;;;;5035956;28;20072;-74
2021/03/16 12:03:03;;;;;;;29.33;15.05;;;27.90;32.50;;;;;;5035870;28;20025;-74
2021/03/16 12:05:29;;;;;;;26.80;14.93;;;28.20;32.40;;;;;;5017185;28;20126;-73
2021/03/16 12:07:55;;;;;;;35.55;14.98;;;28.60;32.00;;;;;;5016259;28;20101;-74
2021/03/16 12:10:20;;;;;;;33.05;15.70;;;29.00;31.80;;;;;;5016729;28;20072;-73
2021/03/16 12:12:46;;;;;;;34.53;17.63;;;29.30;31.40;;;;;;5015984;28;20483;-74
2021/03/16 12:15:17;;;;;;;34.20;17.13;;;29.50;31.10;;;;;;5025537;28;20108;-75
2021/03/16 12:17:44;;;;;;;27.13;17.92;;;29.60;30.50;;;;;;5031243;28;20068;-75
2021/03/16 12:20:10;;;;;;;35.05;19.02;;;29.50;30.40;;;;;;5035535;28;20070;-75
2021/03/16 12:22:36;;;;;;;33.75;18.52;;;29.40;30.40;;;;;;5035429;28;20470;-75
2021/03/16 12:25:04;;;;;;;34.17;18.52;;;29.30;30.20;;;;;;5035572;28;20060;-74
2021/03/16 12:27:30;;;;;;;35.35;20.02;;;29.20;30.20;;;;;;5035170;28;20060;-73
2021/03/16 12:29:55;;;;;;;34.95;20.85;;;29.20;30.10;;;;;;5035423;28;20037;-74
2021/03/16 12:32:22;;;;;;;45.03;21.95;;;29.30;30.10;;;;;;5034252;28;20083;-74
2021/03/16 12:34:50;;;;;;;39.53;22.35;;;29.30;29.90;;;;;;5035291;28;20038;-74
2021/03/16 12:37:16;;;;;;;36.15;22.45;;;29.30;29.90;;;;;;5029722;28;20061;-75
2021/03/16 12:39:42;;;;;;;32.92;22.13;;;29.50;29.90;;;;;;5021319;28;20028;-74
2021/03/16 12:42:08;;;;;;;33.42;22.30;;;29.60;29.80;;;;;;5024639;28;20038;-75